sensor_id;sensor_type;location;lat;lon;timestamp;P1;durP1;ratioP1;P2;durP2;ratioP2
20399;SDS011;10359;53.596;22.520;2023-07-20T00:04:25;10.57;;;7.03;;
20399;SDS011;10359;53.596;22.520;2023-07-20T00:11:16;10.00;;;7.67;;
20399;SDS011;10359;53.596;22.520;2023-07-20T00:18:08;10.87;;;8.97;;
20399;SDS011;10359;53.596;22.520;2023-07-20T00:24:42;18.00;;;11.63;;
20399;SDS011;10359;53.596;22.520;2023-07-20T00:31:32;24.23;;;13.73;;
20399;SDS011;10359;53.596;22.520;2023-07-20T00:38:25;13.00;;;9.07;;
20399;SDS011;10359;53.596;22.520;2023-07-20T00:44:58;19.77;;;11.50;;
20399;SDS011;10359;53.596;22.520;2023-07-20T00:51:08;13.40;;;11.47;;
20399;SDS011;10359;53.596;22.520;2023-07-20T00:57:41;17.17;;;12.53;;
20399;SDS011;10359;53.596;22.520;2023-07-20T01:04:32;22.63;;;13.17;;
20399;SDS011;10359;53.596;22.520;2023-07-20T01:15:11;14.63;;;11.07;;
20399;SDS011;10359;53.596;22.520;2023-07-20T01:21:45;16.80;;;12.10;;
20399;SDS011;10359;53.596;22.520;2023-07-20T01:31:44;14.20;;;11.77;;
20399;SDS011;10359;53.596;22.520;2023-07-20T01:42:37;15.13;;;11.17;;
20399;SDS011;10359;53.596;22.520;2023-07-20T01:49:29;20.57;;;12.13;;
20399;SDS011;10359;53.596;22.520;2023-07-20T01:56:02;26.50;;;15.33;;
20399;SDS011;10359;53.596;22.520;2023-07-20T02:02:35;21.07;;;14.97;;
20399;SDS011;10359;53.596;22.520;2023-07-20T02:09:27;16.37;;;12.37;;
20399;SDS011;10359;53.596;22.520;2023-07-20T02:16:29;13.70;;;12.27;;
20399;SDS011;10359;53.596;22.520;2023-07-20T02:23:43;22.50;;;15.80;;
20399;SDS011;10359;53.596;22.520;2023-07-20T02:31:00;18.97;;;14.30;;
20399;SDS011;10359;53.596;22.520;2023-07-20T02:37:59;25.17;;;15.97;;
20399;SDS011;10359;53.596;22.520;2023-07-20T02:44:58;22.57;;;15.60;;
20399;SDS011;10359;53.596;22.520;2023-07-20T02:51:51;39.23;;;21.00;;
20399;SDS011;10359;53.596;22.520;2023-07-20T03:02:30;21.07;;;15.27;;
20399;SDS011;10359;53.596;22.520;2023-07-20T03:09:04;43.60;;;21.57;;
20399;SDS011;10359;53.596;22.520;2023-07-20T03:15:55;16.97;;;12.50;;
20399;SDS011;10359;53.596;22.520;2023-07-20T03:22:46;28.70;;;17.50;;
20399;SDS011;10359;53.596;22.520;2023-07-20T03:29:21;27.17;;;16.53;;
20399;SDS011;10359;53.596;22.520;2023-07-20T03:36:12;21.80;;;15.27;;
20399;SDS011;10359;53.596;22.520;2023-07-20T03:43:02;17.53;;;13.47;;
20399;SDS011;10359;53.596;22.520;2023-07-20T03:53:38;25.03;;;17.17;;
20399;SDS011;10359;53.596;22.520;2023-07-20T04:03:12;26.77;;;18.17;;
20399;SDS011;10359;53.596;22.520;2023-07-20T04:10:05;22.23;;;16.43;;
20399;SDS011;10359;53.596;22.520;2023-07-20T04:16:39;30.37;;;20.57;;
20399;SDS011;10359;53.596;22.520;2023-07-20T04:23:30;28.70;;;19.27;;
20399;SDS011;10359;53.596;22.520;2023-07-20T04:30:23;11.20;;;10.10;;
20399;SDS011;10359;53.596;22.520;2023-07-20T04:36:20;25.53;;;17.53;;
20399;SDS011;10359;53.596;22.520;2023-07-20T04:43:11;14.73;;;12.40;;
20399;SDS011;10359;53.596;22.520;2023-07-20T04:50:04;24.60;;;15.27;;
20399;SDS011;10359;53.596;22.520;2023-07-20T04:56:38;12.67;;;10.50;;
20399;SDS011;10359;53.596;22.520;2023-07-20T05:03:29;11.93;;;10.27;;
20399;SDS011;10359;53.596;22.520;2023-07-20T05:10:21;12.87;;;10.00;;
20399;SDS011;10359;53.596;22.520;2023-07-20T05:17:11;12.70;;;10.47;;
20399;SDS011;10359;53.596;22.520;2023-07-20T05:24:02;12.77;;;11.43;;
20399;SDS011;10359;53.596;22.520;2023-07-20T05:30:55;11.90;;;10.73;;
20399;SDS011;10359;53.596;22.520;2023-07-20T05:37:48;14.33;;;12.93;;
20399;SDS011;10359;53.596;22.520;2023-07-20T05:44:39;14.70;;;13.30;;
20399;SDS011;10359;53.596;22.520;2023-07-20T05:51:32;14.63;;;13.27;;
20399;SDS011;10359;53.596;22.520;2023-07-20T05:58:23;16.60;;;14.87;;
20399;SDS011;10359;53.596;22.520;2023-07-20T06:04:39;14.77;;;12.20;;
20399;SDS011;10359;53.596;22.520;2023-07-20T06:11:31;17.30;;;15.63;;
20399;SDS011;10359;53.596;22.520;2023-07-20T06:18:22;15.53;;;13.90;;
20399;SDS011;10359;53.596;22.520;2023-07-20T06:24:56;11.53;;;10.47;;
20399;SDS011;10359;53.596;22.520;2023-07-20T06:31:48;13.43;;;11.53;;
20399;SDS011;10359;53.596;22.520;2023-07-20T06:38:39;11.97;;;8.93;;
20399;SDS011;10359;53.596;22.520;2023-07-20T06:45:53;9.20;;;6.70;;
20399;SDS011;10359;53.596;22.520;2023-07-20T06:52:46;8.37;;;6.80;;
20399;SDS011;10359;53.596;22.520;2023-07-20T06:59:20;8.47;;;7.77;;
20399;SDS011;10359;53.596;22.520;2023-07-20T07:05:55;9.50;;;8.47;;
20399;SDS011;10359;53.596;22.520;2023-07-20T07:12:48;7.27;;;6.67;;
20399;SDS011;10359;53.596;22.520;2023-07-20T07:23:26;6.77;;;5.77;;
20399;SDS011;10359;53.596;22.520;2023-07-20T07:30:01;5.83;;;5.33;;
20399;SDS011;10359;53.596;22.520;2023-07-20T07:36:52;5.40;;;4.50;;
20399;SDS011;10359;53.596;22.520;2023-07-20T07:47:28;5.77;;;4.27;;
20399;SDS011;10359;53.596;22.520;2023-07-20T07:54:02;3.60;;;3.30;;
20399;SDS011;10359;53.596;22.520;2023-07-20T08:00:36;4.27;;;3.63;;
20399;SDS011;10359;53.596;22.520;2023-07-20T08:07:29;3.40;;;3.10;;
20399;SDS011;10359;53.596;22.520;2023-07-20T08:10:24;3.97;;;2.73;;
20399;SDS011;10359;53.596;22.520;2023-07-20T08:17:15;5.27;;;2.90;;
20399;SDS011;10359;53.596;22.520;2023-07-20T08:24:08;3.27;;;2.60;;
20399;SDS011;10359;53.596;22.520;2023-07-20T08:30:58;3.77;;;2.77;;
20399;SDS011;10359;53.596;22.520;2023-07-20T08:41:52;4.00;;;2.63;;
20399;SDS011;10359;53.596;22.520;2023-07-20T08:48:44;2.37;;;2.17;;
20399;SDS011;10359;53.596;22.520;2023-07-20T08:55:36;3.33;;;2.40;;
20399;SDS011;10359;53.596;22.520;2023-07-20T09:02:28;3.30;;;2.00;;
20399;SDS011;10359;53.596;22.520;2023-07-20T09:09:19;4.30;;;1.67;;
20399;SDS011;10359;53.596;22.520;2023-07-20T09:16:11;3.50;;;1.70;;
20399;SDS011;10359;53.596;22.520;2023-07-20T09:23:05;2.73;;;1.63;;
20399;SDS011;10359;53.596;22.520;2023-07-20T09:29:56;1.33;;;1.20;;
20399;SDS011;10359;53.596;22.520;2023-07-20T09:36:47;2.00;;;1.40;;
20399;SDS011;10359;53.596;22.520;2023-07-20T09:47:42;2.53;;;1.40;;
20399;SDS011;10359;53.596;22.520;2023-07-20T09:54:36;3.63;;;1.50;;
20399;SDS011;10359;53.596;22.520;2023-07-20T10:01:11;1.87;;;1.20;;
20399;SDS011;10359;53.596;22.520;2023-07-20T10:07:49;3.20;;;1.20;;
20399;SDS011;10359;53.596;22.520;2023-07-20T10:15:04;2.37;;;1.17;;
20399;SDS011;10359;53.596;22.520;2023-07-20T10:21:46;1.17;;;1.07;;
20399;SDS011;10359;53.596;22.520;2023-07-20T10:28:45;1.97;;;1.10;;
20399;SDS011;10359;53.596;22.520;2023-07-20T10:35:52;1.23;;;1.13;;
20399;SDS011;10359;53.596;22.520;2023-07-20T10:42:47;2.35;;;1.15;;
20399;SDS011;10359;53.596;22.520;2023-07-20T10:56:32;1.73;;;1.17;;
20399;SDS011;10359;53.596;22.520;2023-07-20T11:03:26;1.97;;;1.23;;
20399;SDS011;10359;53.596;22.520;2023-07-20T11:10:26;1.77;;;1.43;;
20399;SDS011;10359;53.596;22.520;2023-07-20T11:17:17;1.43;;;1.20;;
20399;SDS011;10359;53.596;22.520;2023-07-20T11:24:11;1.67;;;1.10;;
20399;SDS011;10359;53.596;22.520;2023-07-20T11:31:03;1.23;;;1.10;;
20399;SDS011;10359;53.596;22.520;2023-07-20T11:41:56;1.10;;;1.10;;
20399;SDS011;10359;53.596;22.520;2023-07-20T11:48:31;1.60;;;1.20;;
20399;SDS011;10359;53.596;22.520;2023-07-20T11:55:22;1.47;;;1.10;;
20399;SDS011;10359;53.596;22.520;2023-07-20T12:01:56;1.00;;;1.00;;
20399;SDS011;10359;53.596;22.520;2023-07-20T12:12:50;2.60;;;1.30;;
20399;SDS011;10359;53.596;22.520;2023-07-20T12:19:41;1.07;;;0.93;;
20399;SDS011;10359;53.596;22.520;2023-07-20T12:26:32;1.90;;;1.17;;
20399;SDS011;10359;53.596;22.520;2023-07-20T12:33:25;2.03;;;1.00;;
20399;SDS011;10359;53.596;22.520;2023-07-20T12:40:16;1.00;;;1.00;;
20399;SDS011;10359;53.596;22.520;2023-07-20T12:47:06;1.10;;;1.10;;
20399;SDS011;10359;53.596;22.520;2023-07-20T12:54:00;1.67;;;1.10;;
20399;SDS011;10359;53.596;22.520;2023-07-20T13:00:56;1.20;;;1.02;;
20399;SDS011;10359;53.596;22.520;2023-07-20T13:07:31;1.38;;;1.02;;
20399;SDS011;10359;53.596;22.520;2023-07-20T13:14:26;1.25;;;1.10;;
20399;SDS011;10359;53.596;22.520;2023-07-20T13:21:18;1.15;;;1.05;;
20399;SDS011;10359;53.596;22.520;2023-07-20T13:28:14;2.22;;;1.02;;
20399;SDS011;10359;53.596;22.520;2023-07-20T13:34:49;1.42;;;1.20;;
20399;SDS011;10359;53.596;22.520;2023-07-20T13:41:40;1.88;;;1.08;;
20399;SDS011;10359;53.596;22.520;2023-07-20T13:48:30;3.00;;;1.50;;
20399;SDS011;10359;53.596;22.520;2023-07-20T13:55:25;1.42;;;1.20;;
20399;SDS011;10359;53.596;22.520;2023-07-20T14:02:19;3.72;;;1.35;;
20399;SDS011;10359;53.596;22.520;2023-07-20T14:09:13;1.38;;;1.27;;
20399;SDS011;10359;53.596;22.520;2023-07-20T14:16:05;1.77;;;1.60;;
20399;SDS011;10359;53.596;22.520;2023-07-20T14:22:56;1.73;;;1.63;;
20399;SDS011;10359;53.596;22.520;2023-07-20T14:29:48;2.08;;;1.30;;
20399;SDS011;10359;53.596;22.520;2023-07-20T14:36:40;3.28;;;1.40;;
20399;SDS011;10359;53.596;22.520;2023-07-20T14:43:31;1.20;;;1.10;;
20399;SDS011;10359;53.596;22.520;2023-07-20T14:50:22;1.63;;;1.10;;
20399;SDS011;10359;53.596;22.520;2023-07-20T14:57:14;4.20;;;2.50;;
20399;SDS011;10359;53.596;22.520;2023-07-20T15:03:48;2.30;;;2.10;;
20399;SDS011;10359;53.596;22.520;2023-07-20T15:10:46;3.10;;;2.80;;
20399;SDS011;10359;53.596;22.520;2023-07-20T15:17:39;2.60;;;2.40;;
20399;SDS011;10359;53.596;22.520;2023-07-20T15:24:32;2.63;;;2.40;;
20399;SDS011;10359;53.596;22.520;2023-07-20T15:31:24;2.80;;;1.20;;
20399;SDS011;10359;53.596;22.520;2023-07-20T15:38:21;2.00;;;1.20;;
20399;SDS011;10359;53.596;22.520;2023-07-20T15:45:12;3.53;;;1.40;;
20399;SDS011;10359;53.596;22.520;2023-07-20T15:52:03;2.40;;;1.50;;
20399;SDS011;10359;53.596;22.520;2023-07-20T15:58:56;4.67;;;1.30;;
20399;SDS011;10359;53.596;22.520;2023-07-20T16:05:30;2.00;;;1.30;;
20399;SDS011;10359;53.596;22.520;2023-07-20T16:12:21;2.40;;;1.40;;
20399;SDS011;10359;53.596;22.520;2023-07-20T16:19:15;0.90;;;0.90;;
20399;SDS011;10359;53.596;22.520;2023-07-20T16:26:06;1.27;;;0.90;;
20399;SDS011;10359;53.596;22.520;2023-07-20T16:32:57;8.83;;;1.10;;
20399;SDS011;10359;53.596;22.520;2023-07-20T16:39:37;1.40;;;0.90;;
20399;SDS011;10359;53.596;22.520;2023-07-20T16:46:34;1.90;;;0.90;;
20399;SDS011;10359;53.596;22.520;2023-07-20T16:53:27;1.37;;;0.93;;
20399;SDS011;10359;53.596;22.520;2023-07-20T17:00:20;2.60;;;1.30;;
20399;SDS011;10359;53.596;22.520;2023-07-20T17:06:54;2.10;;;1.30;;
20399;SDS011;10359;53.596;22.520;2023-07-20T17:13:46;2.73;;;1.20;;
20399;SDS011;10359;53.596;22.520;2023-07-20T17:20:39;1.50;;;1.10;;
20399;SDS011;10359;53.596;22.520;2023-07-20T17:27:19;2.57;;;1.00;;
20399;SDS011;10359;53.596;22.520;2023-07-20T17:34:09;4.00;;;1.10;;
20399;SDS011;10359;53.596;22.520;2023-07-20T17:41:02;1.60;;;1.10;;
20399;SDS011;10359;53.596;22.520;2023-07-20T17:47:54;1.33;;;1.00;;
20399;SDS011;10359;53.596;22.520;2023-07-20T17:54:46;1.67;;;0.90;;
20399;SDS011;10359;53.596;22.520;2023-07-20T18:01:39;2.47;;;0.90;;
20399;SDS011;10359;53.596;22.520;2023-07-20T18:08:31;1.60;;;1.00;;
20399;SDS011;10359;53.596;22.520;2023-07-20T18:15:23;4.07;;;1.20;;
20399;SDS011;10359;53.596;22.520;2023-07-20T18:22:00;1.70;;;1.20;;
20399;SDS011;10359;53.596;22.520;2023-07-20T18:28:52;2.07;;;1.20;;
20399;SDS011;10359;53.596;22.520;2023-07-20T18:35:26;1.53;;;1.10;;
20399;SDS011;10359;53.596;22.520;2023-07-20T18:42:03;2.53;;;1.03;;
20399;SDS011;10359;53.596;22.520;2023-07-20T18:47:58;1.17;;;1.07;;
20399;SDS011;10359;53.596;22.520;2023-07-20T18:54:49;1.80;;;1.20;;
20399;SDS011;10359;53.596;22.520;2023-07-20T19:01:43;1.10;;;1.00;;
20399;SDS011;10359;53.596;22.520;2023-07-20T19:08:36;1.47;;;1.10;;
20399;SDS011;10359;53.596;22.520;2023-07-20T19:15:28;2.20;;;1.30;;
20399;SDS011;10359;53.596;22.520;2023-07-20T19:22:20;1.20;;;1.10;;
20399;SDS011;10359;53.596;22.520;2023-07-20T19:28:56;1.87;;;1.07;;
20399;SDS011;10359;53.596;22.520;2023-07-20T19:35:47;1.93;;;1.10;;
20399;SDS011;10359;53.596;22.520;2023-07-20T19:42:42;2.67;;;1.40;;
20399;SDS011;10359;53.596;22.520;2023-07-20T19:49:38;1.37;;;1.23;;
20399;SDS011;10359;53.596;22.520;2023-07-20T19:56:31;1.83;;;1.43;;
20399;SDS011;10359;53.596;22.520;2023-07-20T20:07:30;1.30;;;1.20;;
20399;SDS011;10359;53.596;22.520;2023-07-20T20:14:23;2.63;;;1.20;;
20399;SDS011;10359;53.596;22.520;2023-07-20T20:21:14;1.43;;;1.33;;
20399;SDS011;10359;53.596;22.520;2023-07-20T20:28:06;2.23;;;1.60;;
20399;SDS011;10359;53.596;22.520;2023-07-20T20:34:58;2.53;;;1.60;;
20399;SDS011;10359;53.596;22.520;2023-07-20T20:41:51;2.13;;;1.63;;
20399;SDS011;10359;53.596;22.520;2023-07-20T20:48:29;4.93;;;1.90;;
20399;SDS011;10359;53.596;22.520;2023-07-20T20:55:23;2.30;;;1.80;;
20399;SDS011;10359;53.596;22.520;2023-07-20T21:02:14;2.13;;;1.70;;
20399;SDS011;10359;53.596;22.520;2023-07-20T21:08:50;3.13;;;1.50;;
20399;SDS011;10359;53.596;22.520;2023-07-20T21:15:24;2.50;;;1.70;;
20399;SDS011;10359;53.596;22.520;2023-07-20T21:22:15;3.10;;;1.67;;
20399;SDS011;10359;53.596;22.520;2023-07-20T21:28:50;1.60;;;1.50;;
20399;SDS011;10359;53.596;22.520;2023-07-20T21:35:41;1.90;;;1.80;;
20399;SDS011;10359;53.596;22.520;2023-07-20T21:42:34;2.77;;;2.03;;
20399;SDS011;10359;53.596;22.520;2023-07-20T21:49:27;3.80;;;2.20;;
20399;SDS011;10359;53.596;22.520;2023-07-20T21:56:17;3.00;;;2.40;;
20399;SDS011;10359;53.596;22.520;2023-07-20T22:03:08;2.70;;;2.00;;
20399;SDS011;10359;53.596;22.520;2023-07-20T22:09:43;2.83;;;2.17;;
20399;SDS011;10359;53.596;22.520;2023-07-20T22:16:34;2.83;;;2.30;;
20399;SDS011;10359;53.596;22.520;2023-07-20T22:23:25;4.07;;;2.53;;
20399;SDS011;10359;53.596;22.520;2023-07-20T22:30:00;3.37;;;2.23;;
20399;SDS011;10359;53.596;22.520;2023-07-20T22:36:51;2.57;;;2.30;;
20399;SDS011;10359;53.596;22.520;2023-07-20T22:43:42;2.97;;;2.43;;
20399;SDS011;10359;53.596;22.520;2023-07-20T22:53:48;2.90;;;2.43;;
20399;SDS011;10359;53.596;22.520;2023-07-20T23:00:23;2.43;;;2.23;;
20399;SDS011;10359;53.596;22.520;2023-07-20T23:07:17;2.47;;;2.00;;
20399;SDS011;10359;53.596;22.520;2023-07-20T23:14:09;3.10;;;2.20;;
20399;SDS011;10359;53.596;22.520;2023-07-20T23:21:00;2.53;;;2.10;;
20399;SDS011;10359;53.596;22.520;2023-07-20T23:27:53;4.93;;;2.50;;
20399;SDS011;10359;53.596;22.520;2023-07-20T23:34:44;3.70;;;2.20;;
20399;SDS011;10359;53.596;22.520;2023-07-20T23:41:17;4.67;;;2.43;;
20399;SDS011;10359;53.596;22.520;2023-07-20T23:52:11;4.03;;;2.20;;
20399;SDS011;10359;53.596;22.520;2023-07-20T23:59:07;4.10;;;2.27;;
